Weather at Westchester County Airport

Public forecast

Using degrees Fahrenheit for public forecast. Weather courtesy of forecast.io.

Current aviation weather report (METAR) for Westchester County Airport

2024/06/20 18:56 (retrieved 40 minutes ago)

KHPN 201856Z 22005KT 10SM CLR 32/19 A3026 RMK AO2 SLP241 T03170189

Aviation forecast (TAF) for Westchester County Airport

2024/06/20 20:31 Ammendment (retrieved 0 seconds ago)

TAF AMD KHPN 201931Z 2020/2118 20009KT P6SM BKN250 FM202300 18007KT P6SM BKN250 FM210300 VRB03KT P6SM SCT250 FM211500 21007KT P6SM FEW050 SCT250 AMD NOT SKED